Time;durP1;ratioP1;P1;durP2;ratioP2;P2;SDS_P1;SDS_P2;PMS_P1;PMS_P2;Temp;Humidity;BMP_temperature;BMP_pressure;BME280_temperature;BME280_humidity;BME280_pressure;Samples;Min_cycle;Max_cycle;Signal;HPM_P1;HPM_P2
2023/07/16 00:00:33;;;;;;;0.80;0.80;;;;;;;27.13;77.30;99582.25;5152807;27;20200;-63
2023/07/16 00:03:00;;;;;;;0.87;0.83;;;;;;;27.10;77.04;99582.53;5153155;27;20201;-63
2023/07/16 00:05:27;;;;;;;0.70;0.70;;;;;;;27.00;77.66;99587.00;5149425;27;20197;-62
2023/07/16 00:07:56;;;;;;;1.53;0.60;;;;;;;27.01;77.22;99593.09;5048380;27;20200;-63
2023/07/16 00:10:23;;;;;;;0.50;0.50;;;;;;;26.99;77.52;99584.50;5048288;27;20201;-62
2023/07/16 00:12:49;;;;;;;0.67;0.67;;;;;;;26.92;77.43;99584.25;5043250;27;20215;-62
2023/07/16 00:15:16;;;;;;;1.03;0.80;;;;;;;26.88;77.79;99585.53;5048095;27;20201;-63
2023/07/16 00:17:43;;;;;;;1.70;0.60;;;;;;;26.90;77.67;99583.59;5047826;27;20224;-62
2023/07/16 00:20:10;;;;;;;0.80;0.80;;;;;;;26.94;78.01;99592.84;5079366;27;20220;-62
2023/07/16 00:22:38;;;;;;;1.53;0.70;;;;;;;26.96;78.02;99590.06;5137922;27;20197;-62
2023/07/16 00:25:08;;;;;;;0.63;0.63;;;;;;;26.91;78.02;99593.16;5082630;27;20279;-63
2023/07/16 00:27:35;;;;;;;0.60;0.60;;;;;;;26.88;78.06;99593.41;5047954;27;20211;-62
2023/07/16 00:30:02;;;;;;;0.70;0.70;;;;;;;26.93;77.63;99601.72;5048006;27;20192;-62
2023/07/16 00:32:28;;;;;;;0.33;0.33;;;;;;;26.90;78.25;99596.75;5047935;27;20215;-63
2023/07/16 00:34:55;;;;;;;0.60;0.60;;;;;;;26.84;78.46;99599.97;5042390;27;20207;-62
2023/07/16 00:37:22;;;;;;;1.20;0.90;;;;;;;26.89;78.32;99594.25;5120459;27;20558;-62
2023/07/16 00:39:49;;;;;;;0.60;0.60;;;;;;;26.92;78.27;99607.13;5048035;27;20734;-63
2023/07/16 00:42:17;;;;;;;0.53;0.53;;;;;;;26.91;78.21;99601.03;5082565;27;20228;-62
2023/07/16 00:44:44;;;;;;;0.83;0.83;;;;;;;26.94;79.30;99592.84;5105307;27;20699;-62
2023/07/16 00:47:12;;;;;;;1.07;1.00;;;;;;;26.91;78.33;99598.41;5051561;27;20201;-62
2023/07/16 00:49:39;;;;;;;0.70;0.70;;;;;;;26.88;78.30;99598.69;5051101;27;20668;-62
2023/07/16 00:52:09;;;;;;;0.70;0.70;;;;;;;26.87;78.00;99597.03;5051567;27;20606;-63
2023/07/16 00:54:36;;;;;;;0.50;0.50;;;;;;;26.92;78.30;99594.78;5095151;27;20261;-63
2023/07/16 00:57:03;;;;;;;0.87;0.70;;;;;;;26.95;78.06;99586.59;5156493;27;20197;-62
2023/07/16 00:59:31;;;;;;;0.97;0.40;;;;;;;26.94;78.47;99581.50;5156396;27;20213;-63
2023/07/16 01:01:58;;;;;;;2.77;0.70;;;;;;;26.93;78.20;99585.94;5112292;27;20201;-62
2023/07/16 01:04:25;;;;;;;2.03;0.80;;;;;;;26.92;78.24;99589.53;5151857;27;20195;-62
2023/07/16 01:06:56;;;;;;;0.60;0.60;;;;;;;26.94;78.10;99584.97;5118062;27;20197;-62
2023/07/16 01:09:23;;;;;;;0.80;0.80;;;;;;;26.99;78.36;99587.16;5081448;27;20262;-63
2023/07/16 01:11:51;;;;;;;0.80;0.80;;;;;;;26.99;78.34;99590.59;5094766;27;20204;-65
2023/07/16 01:14:18;;;;;;;0.60;0.60;;;;;;;27.00;77.87;99592.28;5150392;27;20197;-65
2023/07/16 01:16:46;;;;;;;0.50;0.50;;;;;;;26.99;78.25;99585.34;5155491;27;20600;-65
2023/07/16 01:19:13;;;;;;;0.80;0.80;;;;;;;26.96;78.64;99590.91;5156230;27;20717;-65
2023/07/16 01:21:48;;;;;;;0.90;0.90;;;;;;;26.90;78.68;99596.75;5155840;27;20246;-65
2023/07/16 01:24:44;;;;;;;0.60;0.60;;;;;;;26.89;78.89;99599.50;5156104;27;20703;-65
2023/07/16 01:27:42;;;;;;;0.63;0.63;;;;;;;26.86;79.56;99600.63;5155996;27;20193;-65
2023/07/16 01:30:16;;;;;;;0.93;0.93;;;;;;;26.85;78.73;99601.59;5050608;27;20667;-65
2023/07/16 01:32:43;;;;;;;0.60;0.60;;;;;;;26.84;79.66;99597.34;5050629;27;20291;-65
2023/07/16 01:35:11;;;;;;;0.50;0.50;;;;;;;26.85;78.90;99598.97;5050466;27;20207;-65
2023/07/16 01:37:37;;;;;;;0.47;0.47;;;;;;;26.86;79.32;99594.53;5050362;27;20781;-65
2023/07/16 01:40:08;;;;;;;0.90;0.73;;;;;;;26.84;79.09;99592.06;5050193;27;20221;-65
2023/07/16 01:42:35;;;;;;;0.67;0.67;;;;;;;26.85;78.93;99596.34;5050453;27;20283;-65
2023/07/16 01:45:02;;;;;;;0.93;0.80;;;;;;;26.86;79.56;99594.53;5050249;27;20699;-66
2023/07/16 01:47:40;;;;;;;0.50;0.50;;;;;;;26.83;79.03;99595.66;5050661;27;20201;-65
2023/07/16 01:50:08;;;;;;;0.70;0.70;;;;;;;26.80;79.08;99597.72;5050181;27;20679;-65
2023/07/16 01:52:35;;;;;;;0.60;0.60;;;;;;;26.78;79.33;99597.88;5049445;27;20208;-65
2023/07/16 01:55:02;;;;;;;0.70;0.60;;;;;;;26.77;79.71;99588.31;5050057;27;20193;-65
2023/07/16 01:57:28;;;;;;;1.73;0.70;;;;;;;26.77;79.66;99595.38;5050530;27;20197;-66
2023/07/16 01:59:55;;;;;;;0.87;0.87;;;;;;;26.78;79.28;99600.50;5049987;27;20632;-65
2023/07/16 02:02:22;;;;;;;0.83;0.83;;;;;;;26.75;80.19;99595.53;5050505;27;20204;-65
2023/07/16 02:04:50;;;;;;;0.90;0.90;;;;;;;26.72;80.38;99595.78;5050019;27;20201;-64
2023/07/16 02:07:17;;;;;;;0.70;0.70;;;;;;;26.70;80.65;99594.28;5049782;27;20211;-65
2023/07/16 02:09:43;;;;;;;1.60;0.87;;;;;;;26.69;80.36;99600.53;5049975;27;20199;-65
2023/07/16 02:12:10;;;;;;;0.50;0.50;;;;;;;26.66;79.97;99592.94;5049825;27;20201;-65
2023/07/16 02:14:37;;;;;;;0.70;0.70;;;;;;;26.61;80.39;99594.19;5050017;27;20197;-65
2023/07/16 02:17:04;;;;;;;0.70;0.70;;;;;;;26.60;80.25;99599.59;5048451;27;20255;-65
2023/07/16 02:19:31;;;;;;;0.70;0.70;;;;;;;26.57;80.34;99602.50;5049889;27;20703;-65
2023/07/16 02:21:59;;;;;;;0.40;0.40;;;;;;;26.53;80.32;99593.22;5049785;27;20221;-65
2023/07/16 02:24:26;;;;;;;0.50;0.50;;;;;;;26.52;80.96;99602.13;5050199;27;20204;-65
2023/07/16 02:26:52;;;;;;;0.97;0.47;;;;;;;26.47;80.25;99588.53;5144501;27;20656;-65
2023/07/16 02:29:19;;;;;;;0.67;0.67;;;;;;;26.49;81.01;99597.13;5154661;27;20675;-65
2023/07/16 02:31:48;;;;;;;0.67;0.67;;;;;;;26.51;80.85;99606.53;5080268;27;20201;-65
2023/07/16 02:34:15;;;;;;;0.93;0.80;;;;;;;26.43;80.99;99602.97;5049341;27;20209;-65
2023/07/16 02:36:41;;;;;;;0.47;0.47;;;;;;;26.41;80.88;99607.53;5049681;27;20201;-65
2023/07/16 02:39:09;;;;;;;1.23;1.13;;;;;;;26.35;81.12;99601.03;5049353;27;20197;-65
2023/07/16 02:41:36;;;;;;;0.60;0.60;;;;;;;26.39;81.35;99609.47;5049462;27;20688;-65
2023/07/16 02:44:06;;;;;;;0.63;0.63;;;;;;;26.39;80.25;99606.84;5049343;27;20258;-65
2023/07/16 02:46:33;;;;;;;0.93;0.70;;;;;;;26.30;80.69;99597.97;5049265;27;20242;-65
2023/07/16 02:48:59;;;;;;;0.60;0.60;;;;;;;26.29;80.98;99606.88;5049429;27;20204;-65
2023/07/16 02:51:26;;;;;;;1.87;1.00;;;;;;;26.25;81.59;99607.28;5112504;27;20197;-65
2023/07/16 02:53:53;;;;;;;0.60;0.60;;;;;;;26.23;81.82;99617.09;5154281;27;20661;-66
2023/07/16 02:56:21;;;;;;;0.73;0.73;;;;;;;26.16;81.00;99595.81;5154149;27;20585;-65
2023/07/16 02:58:48;;;;;;;0.83;0.80;;;;;;;26.21;81.47;99619.03;5154098;27;20197;-65
2023/07/16 03:01:15;;;;;;;0.37;0.37;;;;;;;26.15;81.74;99612.50;5154118;27;20653;-65
2023/07/16 03:03:41;;;;;;;0.50;0.50;;;;;;;25.98;82.30;99590.38;5153860;27;20208;-65
2023/07/16 03:06:09;;;;;;;0.90;0.90;;;;;;;25.97;82.49;99604.50;5153722;27;20193;-65
2023/07/16 03:08:35;;;;;;;1.40;0.60;;;;;;;25.96;83.38;99602.00;5153711;27;20189;-65
2023/07/16 03:11:02;;;;;;;0.70;0.70;;;;;;;26.00;83.58;99611.28;5153898;27;20622;-65
2023/07/16 03:13:30;;;;;;;0.60;0.60;;;;;;;26.00;82.92;99606.84;5153570;27;20193;-65
2023/07/16 03:15:57;;;;;;;0.60;0.60;;;;;;;26.02;83.03;99615.41;5153669;27;20197;-65
2023/07/16 03:18:29;;;;;;;0.67;0.67;;;;;;;25.86;83.23;99588.03;5090465;27;20229;-65
2023/07/16 03:20:55;;;;;;;0.70;0.70;;;;;;;25.95;83.15;99611.69;5048948;27;20220;-65
2023/07/16 03:23:22;;;;;;;0.50;0.50;;;;;;;25.93;82.97;99611.00;5048723;27;20215;-65
2023/07/16 03:25:49;;;;;;;1.00;1.00;;;;;;;25.88;83.32;99613.19;5048714;27;20281;-65
2023/07/16 03:28:16;;;;;;;0.50;0.50;;;;;;;25.84;83.67;99619.72;5048811;27;20260;-65
2023/07/16 03:30:47;;;;;;;0.50;0.50;;;;;;;25.87;83.97;99619.44;5048817;27;20189;-65
2023/07/16 03:33:14;;;;;;;0.83;0.83;;;;;;;25.85;83.79;99616.09;5048610;27;20201;-65
2023/07/16 03:35:43;;;;;;;1.43;1.33;;;;;;;25.89;83.75;99620.13;5048841;27;20200;-65
2023/07/16 03:38:10;;;;;;;3.53;2.20;;;;;;;25.90;83.53;99620.97;5048674;27;20197;-65
2023/07/16 03:40:37;;;;;;;1.33;1.33;;;;;;;25.88;83.54;99621.06;5048342;27;20217;-65
2023/07/16 03:43:04;;;;;;;1.33;1.10;;;;;;;25.88;83.70;99617.66;5048756;27;20664;-65
2023/07/16 03:45:31;;;;;;;1.30;1.30;;;;;;;25.91;83.16;99618.19;5048519;27;20636;-65
2023/07/16 03:47:59;;;;;;;1.53;1.43;;;;;;;25.98;82.86;99614.03;5048318;27;20205;-65
2023/07/16 03:50:26;;;;;;;1.17;1.17;;;;;;;26.04;82.95;99623.97;5048549;27;20254;-65
2023/07/16 03:52:52;;;;;;;1.00;1.00;;;;;;;26.13;83.49;99626.75;5048384;27;20197;-65
2023/07/16 03:55:19;;;;;;;0.80;0.80;;;;;;;26.22;82.84;99631.22;5048260;27;20211;-65
2023/07/16 03:57:46;;;;;;;1.27;0.70;;;;;;;26.28;82.30;99631.47;5048457;27;20204;-63
2023/07/16 04:00:13;;;;;;;0.60;0.60;;;;;;;26.40;82.31;99630.34;5048357;27;20592;-62
2023/07/16 04:02:40;;;;;;;0.80;0.80;;;;;;;26.53;82.27;99630.03;5048237;27;20646;-61
2023/07/16 04:05:09;;;;;;;0.60;0.60;;;;;;;26.60;81.93;99631.13;5048544;27;20560;-63
2023/07/16 04:07:36;;;;;;;0.50;0.50;;;;;;;26.66;82.27;99630.56;5048170;27;20200;-63
2023/07/16 04:10:03;;;;;;;0.97;0.97;;;;;;;26.74;82.13;99643.00;5048174;27;20201;-63
2023/07/16 04:12:29;;;;;;;0.70;0.70;;;;;;;26.86;82.47;99642.72;5082961;27;20201;-63
2023/07/16 04:14:58;;;;;;;1.67;0.70;;;;;;;26.99;80.89;99643.25;5047687;27;20208;-62
2023/07/16 04:17:25;;;;;;;0.90;0.90;;;;;;;27.00;81.82;99626.47;5048211;27;20668;-62
2023/07/16 04:19:52;;;;;;;0.70;0.70;;;;;;;27.19;80.41;99640.53;5048131;27;20224;-65
2023/07/16 04:22:20;;;;;;;0.53;0.53;;;;;;;27.27;80.99;99645.91;5048084;27;20197;-65
2023/07/16 04:24:47;;;;;;;0.67;0.67;;;;;;;27.34;80.14;99639.06;5047810;27;20197;-65
2023/07/16 04:27:13;;;;;;;0.97;0.97;;;;;;;27.41;79.50;99650.66;5047975;27;20201;-65
2023/07/16 04:29:40;;;;;;;0.60;0.60;;;;;;;27.46;79.59;99640.56;5047862;27;20235;-65
2023/07/16 04:32:07;;;;;;;0.60;0.60;;;;;;;27.58;78.85;99647.28;5047731;27;20201;-65
2023/07/16 04:34:34;;;;;;;0.93;0.93;;;;;;;27.61;79.20;99653.06;5047886;27;20220;-66
2023/07/16 04:37:01;;;;;;;0.50;0.50;;;;;;;27.67;80.04;99648.19;5047830;27;20196;-65
2023/07/16 04:39:29;;;;;;;0.70;0.70;;;;;;;27.75;78.57;99651.75;5047670;27;20208;-65
2023/07/16 04:41:56;;;;;;;1.13;0.70;;;;;;;27.52;76.36;99650.50;5047621;27;20201;-65
2023/07/16 04:44:23;;;;;;;0.80;0.80;;;;;;;27.59;77.10;99656.84;5047795;27;20197;-66
2023/07/16 04:46:49;;;;;;;0.90;0.90;;;;;;;27.69;76.74;99662.84;5048060;27;20200;-66
2023/07/16 04:49:16;;;;;;;0.90;0.90;;;;;;;27.62;76.29;99661.81;5047547;27;20204;-66
2023/07/16 04:51:43;;;;;;;0.87;0.87;;;;;;;27.74;76.37;99665.88;5047794;27;20204;-65
2023/07/16 04:54:10;;;;;;;0.97;0.97;;;;;;;27.80;74.66;99665.28;5047787;27;20200;-65
2023/07/16 04:56:38;;;;;;;0.70;0.70;;;;;;;27.87;74.39;99671.63;5099862;27;20193;-66
2023/07/16 04:59:05;;;;;;;0.40;0.40;;;;;;;27.86;72.93;99667.31;5152357;27;20699;-65
2023/07/16 05:01:31;;;;;;;0.57;0.57;;;;;;;27.81;72.74;99666.94;5152194;27;20213;-65
2023/07/16 05:03:58;;;;;;;0.50;0.50;;;;;;;27.91;72.17;99672.97;5152246;27;20204;-65
2023/07/16 05:06:25;;;;;;;0.83;0.83;;;;;;;27.91;71.41;99672.16;5152448;27;20202;-65
2023/07/16 05:08:51;;;;;;;0.67;0.67;;;;;;;27.95;72.02;99673.53;5152190;27;20205;-65
2023/07/16 05:11:19;;;;;;;0.50;0.50;;;;;;;28.10;71.99;99672.03;5152141;27;22119;-65
2023/07/16 05:13:47;;;;;;;0.87;0.87;;;;;;;28.23;71.05;99671.66;5067976;27;20205;-66
2023/07/16 05:16:14;;;;;;;0.50;0.50;;;;;;;28.46;70.74;99672.84;5047269;27;20205;-66
2023/07/16 05:18:40;;;;;;;0.70;0.70;;;;;;;28.62;68.22;99679.06;5047373;27;20201;-65
2023/07/16 05:21:07;;;;;;;1.50;0.80;;;;;;;28.69;68.58;99678.47;5065984;27;20216;-66
2023/07/16 05:23:34;;;;;;;0.60;0.60;;;;;;;28.83;68.11;99685.81;5152028;27;20200;-66
2023/07/16 05:26:01;;;;;;;0.70;0.70;;;;;;;28.88;66.88;99687.00;5152101;27;20231;-66
2023/07/16 05:28:27;;;;;;;0.77;0.77;;;;;;;29.05;67.29;99686.09;5155300;27;20253;-66
2023/07/16 05:31:00;;;;;;;0.95;0.95;;;;;;;29.19;65.48;99682.88;5155738;27;20193;-66
2023/07/16 05:33:27;;;;;;;0.50;0.50;;;;;;;29.34;63.25;99683.13;5155837;27;20204;-66
2023/07/16 05:35:54;;;;;;;1.50;0.70;;;;;;;29.47;63.35;99690.63;5155836;27;20197;-65
2023/07/16 05:38:21;;;;;;;0.80;0.77;;;;;;;29.60;63.04;99691.81;5155762;27;20215;-65
2023/07/16 05:40:47;;;;;;;0.65;0.65;;;;;;;29.70;64.01;99691.69;5155522;27;20212;-66
2023/07/16 05:43:14;;;;;;;0.70;0.70;;;;;;;29.74;63.80;99693.03;5155523;27;20193;-66
2023/07/16 05:45:41;;;;;;;0.60;0.60;;;;;;;29.70;62.05;99675.81;5155376;27;20281;-65
2023/07/16 05:48:09;;;;;;;0.70;0.70;;;;;;;29.94;62.34;99691.78;5155457;27;20190;-65
2023/07/16 05:50:36;;;;;;;0.88;0.88;;;;;;;30.01;60.65;99690.16;5046485;27;20193;-65
2023/07/16 05:53:03;;;;;;;0.60;0.60;;;;;;;30.07;60.37;99700.06;5050170;27;20205;-66
2023/07/16 05:55:29;;;;;;;0.68;0.68;;;;;;;29.98;57.09;99701.06;5050135;27;20197;-66
2023/07/16 05:57:56;;;;;;;0.82;0.82;;;;;;;30.04;58.81;99700.41;5050128;27;20212;-66
2023/07/16 06:00:23;;;;;;;0.65;0.65;;;;;;;30.20;57.23;99708.34;5050061;27;20219;-65
2023/07/16 06:02:50;;;;;;;0.82;0.82;;;;;;;30.41;57.84;99701.75;5050139;27;20203;-65
2023/07/16 06:05:18;;;;;;;0.80;0.80;;;;;;;30.32;56.31;99695.63;5049934;27;20208;-66
2023/07/16 06:07:45;;;;;;;0.70;0.70;;;;;;;30.52;56.93;99704.09;5050056;27;20193;-66
2023/07/16 06:10:12;;;;;;;0.60;0.60;;;;;;;30.80;58.01;99702.72;5049992;27;20197;-66
2023/07/16 06:12:39;;;;;;;0.88;0.88;;;;;;;31.11;57.84;99703.72;5049801;27;20224;-66
2023/07/16 06:15:06;;;;;;;0.75;0.75;;;;;;;31.36;54.92;99696.50;5049992;27;20276;-66
2023/07/16 06:17:33;;;;;;;0.50;0.50;;;;;;;31.66;55.71;99710.81;5049710;27;20231;-65
2023/07/16 06:19:59;;;;;;;0.47;0.47;;;;;;;31.72;53.42;99705.63;5049735;27;20253;-65
2023/07/16 06:22:28;;;;;;;0.50;0.50;;;;;;;31.47;53.15;99700.59;5049689;27;20205;-65
2023/07/16 06:24:54;;;;;;;0.65;0.65;;;;;;;31.40;53.26;99683.72;5049886;27;20611;-66
2023/07/16 06:27:21;;;;;;;0.77;0.77;;;;;;;31.82;54.92;99693.97;5049529;27;20208;-65
2023/07/16 06:29:48;;;;;;;0.70;0.70;;;;;;;31.99;54.95;99691.03;5049829;27;20691;-66
2023/07/16 06:32:15;;;;;;;1.02;0.73;;;;;;;32.05;54.44;99695.66;5049562;27;20193;-66
2023/07/16 06:34:41;;;;;;;0.50;0.50;;;;;;;32.09;52.13;99696.97;5050076;27;20261;-66
2023/07/16 06:37:08;;;;;;;2.08;0.80;;;;;;;32.32;53.36;99696.13;5049748;27;20348;-66
2023/07/16 06:39:36;;;;;;;0.98;0.98;;;;;;;32.20;52.08;99691.25;5049152;27;20691;-65
2023/07/16 06:42:03;;;;;;;0.70;0.70;;;;;;;32.27;52.69;99688.72;5092231;27;20213;-66
2023/07/16 06:44:30;;;;;;;0.75;0.70;;;;;;;32.28;51.00;99684.25;5046814;27;20203;-65
2023/07/16 06:46:57;;;;;;;0.85;0.85;;;;;;;32.01;51.97;99683.75;5049479;27;20205;-66
2023/07/16 06:49:24;;;;;;;1.08;1.00;;;;;;;32.15;51.20;99680.34;5049672;27;20224;-66
2023/07/16 06:51:51;;;;;;;0.57;0.57;;;;;;;32.06;50.79;99676.09;5110260;27;20662;-65
2023/07/16 06:54:17;;;;;;;0.63;0.63;;;;;;;31.95;51.07;99670.34;5154098;27;20695;-66
2023/07/16 06:56:46;;;;;;;0.63;0.63;;;;;;;32.03;51.41;99671.13;5137132;27;20687;-65
2023/07/16 06:59:12;;;;;;;0.80;0.80;;;;;;;32.11;49.89;99672.94;5154086;27;20618;-65
2023/07/16 07:01:39;;;;;;;1.10;0.82;;;;;;;32.13;51.66;99671.72;5153782;27;20645;-66
2023/07/16 07:04:06;;;;;;;0.50;0.50;;;;;;;32.24;51.60;99679.28;5154095;27;20204;-66
2023/07/16 07:06:33;;;;;;;0.70;0.70;;;;;;;32.48;50.44;99674.75;5154077;27;20194;-65
2023/07/16 07:08:59;;;;;;;0.60;0.60;;;;;;;32.57;50.94;99673.72;5153903;27;20201;-66
2023/07/16 07:11:26;;;;;;;0.50;0.50;;;;;;;32.70;49.77;99679.22;5153940;27;20190;-66
2023/07/16 07:13:56;;;;;;;0.60;0.57;;;;;;;32.93;48.54;99690.59;5091120;27;20204;-66
2023/07/16 07:16:23;;;;;;;0.77;0.77;;;;;;;32.82;47.04;99683.09;5048891;27;20197;-66
2023/07/16 07:18:50;;;;;;;0.65;0.60;;;;;;;32.73;47.81;99678.88;5049015;27;20205;-65
2023/07/16 07:21:16;;;;;;;0.55;0.55;;;;;;;32.84;47.63;99686.38;5048811;27;20312;-66
2023/07/16 07:23:43;;;;;;;0.85;0.85;;;;;;;32.60;47.01;99678.69;5049206;27;20550;-66
2023/07/16 07:26:10;;;;;;;0.60;0.52;;;;;;;32.79;48.77;99672.84;5049078;27;20617;-66
2023/07/16 07:28:37;;;;;;;0.60;0.60;;;;;;;32.95;46.75;99677.16;5048880;27;20687;-65
2023/07/16 07:31:05;;;;;;;0.50;0.50;;;;;;;32.87;46.70;99678.06;5048947;27;20200;-65
2023/07/16 07:33:32;;;;;;;0.73;0.73;;;;;;;33.11;47.43;99677.84;5048664;27;20572;-66
2023/07/16 07:35:59;;;;;;;0.73;0.73;;;;;;;33.14;45.67;99680.13;5048514;27;20200;-65
2023/07/16 07:38:25;;;;;;;0.70;0.70;;;;;;;33.07;48.06;99681.00;5048644;27;20197;-65
2023/07/16 07:40:52;;;;;;;0.40;0.40;;;;;;;32.87;47.27;99675.41;5048520;27;20223;-66
2023/07/16 07:43:19;;;;;;;0.50;0.50;;;;;;;33.13;48.13;99670.50;5048594;27;20203;-66
2023/07/16 07:45:46;;;;;;;2.38;0.47;;;;;;;33.30;48.12;99675.59;5048478;27;20193;-66
2023/07/16 07:48:14;;;;;;;0.70;0.70;;;;;;;33.42;47.99;99679.44;5048648;27;20197;-66
2023/07/16 07:50:40;;;;;;;0.90;0.90;;;;;;;33.30;47.80;99670.28;5047590;27;20204;-65
2023/07/16 07:53:07;;;;;;;0.77;0.77;;;;;;;33.37;47.77;99679.19;5048419;27;20201;-65
2023/07/16 07:55:35;;;;;;;0.80;0.80;;;;;;;33.21;48.44;99673.06;5048512;27;20249;-66
2023/07/16 07:58:02;;;;;;;0.85;0.82;;;;;;;33.11;48.38;99672.53;5048427;27;20261;-66
2023/07/16 08:00:28;;;;;;;0.75;0.75;;;;;;;33.18;50.04;99676.06;5048194;27;20197;-66
2023/07/16 08:02:55;;;;;;;1.38;0.63;;;;;;;33.30;48.87;99672.94;5048186;27;20269;-66
2023/07/16 08:05:23;;;;;;;1.15;0.60;;;;;;;33.41;50.22;99672.50;5048242;27;20201;-66
2023/07/16 08:07:52;;;;;;;0.68;0.68;;;;;;;33.11;49.64;99672.53;5048166;27;20193;-66
2023/07/16 08:10:18;;;;;;;0.80;0.80;;;;;;;33.03;50.11;99674.41;5048506;27;20196;-65
2023/07/16 08:12:45;;;;;;;0.70;0.70;;;;;;;33.06;49.06;99669.53;5048207;27;20740;-66
2023/07/16 08:15:14;;;;;;;0.70;0.70;;;;;;;33.23;48.42;99655.09;5047677;27;20672;-66
2023/07/16 08:17:41;;;;;;;0.70;0.70;;;;;;;33.69;47.52;99670.78;5126930;27;20232;-64
2023/07/16 08:20:11;;;;;;;1.30;0.60;;;;;;;33.58;47.33;99668.59;5152556;27;20216;-63
2023/07/16 08:22:39;;;;;;;0.90;0.90;;;;;;;33.77;47.65;99668.00;5152502;27;20212;-64
2023/07/16 08:25:08;;;;;;;0.55;0.55;;;;;;;33.83;45.99;99671.78;5152665;27;20687;-64
2023/07/16 08:27:35;;;;;;;0.50;0.50;;;;;;;33.65;47.59;99664.19;5152695;27;20193;-63
2023/07/16 08:30:02;;;;;;;0.60;0.60;;;;;;;33.66;48.54;99666.69;5152583;27;20193;-64
2023/07/16 08:32:29;;;;;;;0.57;0.57;;;;;;;33.68;50.16;99658.50;5152571;27;20189;-64
2023/07/16 08:34:55;;;;;;;1.65;0.82;;;;;;;33.93;47.77;99659.78;5109721;27;20584;-63
2023/07/16 08:37:22;;;;;;;2.60;0.73;;;;;;;34.23;46.45;99650.69;5047708;27;20193;-64
2023/07/16 08:39:53;;;;;;;0.73;0.70;;;;;;;34.33;47.15;99657.50;5047807;27;20698;-64
2023/07/16 08:42:20;;;;;;;0.60;0.60;;;;;;;34.06;46.69;99646.59;5047791;27;20303;-63
2023/07/16 08:44:49;;;;;;;0.65;0.65;;;;;;;34.19;47.65;99654.75;5047671;27;20300;-63
2023/07/16 08:47:16;;;;;;;0.75;0.75;;;;;;;34.09;46.54;99656.88;5047806;27;20201;-63
2023/07/16 08:49:52;;;;;;;0.63;0.63;;;;;;;34.09;46.79;99653.41;5047882;27;20213;-63
2023/07/16 08:52:19;;;;;;;0.80;0.80;;;;;;;34.22;48.86;99649.03;5047752;27;20561;-66
2023/07/16 08:54:46;;;;;;;0.57;0.57;;;;;;;34.41;50.26;99650.25;5047622;27;20204;-65
2023/07/16 08:57:15;;;;;;;0.60;0.60;;;;;;;34.66;48.36;99650.63;5142496;27;20201;-65
2023/07/16 08:59:42;;;;;;;0.98;0.98;;;;;;;34.86;47.65;99654.25;5081628;27;20204;-66
2023/07/16 09:02:09;;;;;;;0.52;0.52;;;;;;;34.92;47.47;99656.13;5049836;27;20224;-65
2023/07/16 09:04:36;;;;;;;0.50;0.50;;;;;;;34.99;47.02;99648.19;5051364;27;20196;-66
2023/07/16 09:07:03;;;;;;;0.55;0.55;;;;;;;35.16;46.48;99646.84;5051102;27;20197;-66
2023/07/16 09:09:30;;;;;;;3.70;0.98;;;;;;;35.05;45.53;99653.53;5051068;27;20264;-65
2023/07/16 09:11:56;;;;;;;0.65;0.65;;;;;;;34.89;46.96;99645.88;5050908;27;20251;-66
2023/07/16 09:14:25;;;;;;;2.85;0.93;;;;;;;34.79;46.46;99653.38;5050525;27;20212;-66
2023/07/16 09:16:52;;;;;;;0.98;0.57;;;;;;;34.81;47.43;99640.69;5050893;27;20756;-65
2023/07/16 09:19:19;;;;;;;1.58;0.80;;;;;;;34.55;46.39;99651.13;5050882;27;20200;-66
2023/07/16 09:21:50;;;;;;;0.90;0.80;;;;;;;34.48;46.02;99650.25;5050728;27;20213;-66
2023/07/16 09:24:18;;;;;;;1.00;1.00;;;;;;;34.73;47.13;99648.84;5050608;27;20234;-66
2023/07/16 09:26:50;;;;;;;1.45;0.50;;;;;;;35.01;46.45;99652.28;5050939;27;20627;-66
2023/07/16 09:29:16;;;;;;;0.68;0.68;;;;;;;35.29;48.15;99645.06;5050488;27;20606;-66
2023/07/16 09:31:55;;;;;;;0.80;0.80;;;;;;;34.88;47.79;99641.56;5050679;27;20197;-66
2023/07/16 09:34:22;;;;;;;0.82;0.82;;;;;;;34.87;46.25;99631.91;5050530;27;20303;-66
2023/07/16 09:36:49;;;;;;;0.65;0.65;;;;;;;34.75;47.46;99641.47;5050570;27;20211;-65
2023/07/16 09:39:18;;;;;;;1.42;1.35;;;;;;;34.69;47.36;99627.09;5050695;27;20283;-66
2023/07/16 09:41:45;;;;;;;0.60;0.60;;;;;;;34.70;46.66;99633.25;5050773;27;20642;-66
2023/07/16 09:44:14;;;;;;;0.77;0.77;;;;;;;34.71;48.18;99629.56;5050556;27;20197;-67
2023/07/16 09:46:41;;;;;;;1.55;1.00;;;;;;;34.91;49.24;99630.50;5050464;27;20207;-66
2023/07/16 09:49:10;;;;;;;0.95;0.95;;;;;;;34.97;48.06;99629.72;5050259;27;20225;-66
2023/07/16 09:51:38;;;;;;;0.88;0.85;;;;;;;35.20;48.53;99624.09;5050234;27;20710;-65
2023/07/16 09:54:06;;;;;;;0.70;0.70;;;;;;;35.41;48.65;99620.50;5050250;27;20211;-67
2023/07/16 09:56:37;;;;;;;0.70;0.70;;;;;;;35.55;46.84;99619.50;5050368;27;20576;-65
2023/07/16 09:59:09;;;;;;;1.20;1.10;;;;;;;35.16;47.45;99610.34;5050282;27;20232;-66
2023/07/16 10:01:39;;;;;;;0.77;0.77;;;;;;;35.14;48.12;99603.59;5050118;27;20317;-66
2023/07/16 10:04:15;;;;;;;0.90;0.90;;;;;;;35.28;48.15;99605.28;5050026;27;20249;-66
2023/07/16 10:06:55;;;;;;;0.80;0.80;;;;;;;35.16;47.46;99606.84;5049932;27;20201;-65
2023/07/16 10:09:39;;;;;;;1.15;1.00;;;;;;;35.29;47.80;99597.06;5050372;27;20200;-65
2023/07/16 10:12:16;;;;;;;1.02;1.02;;;;;;;35.42;48.53;99598.13;5049816;27;20204;-66
2023/07/16 10:14:44;;;;;;;0.73;0.73;;;;;;;35.50;48.33;99581.97;5049753;27;20207;-66
2023/07/16 10:17:18;;;;;;;0.98;0.95;;;;;;;35.67;47.34;99592.06;5049855;27;20699;-66
2023/07/16 10:19:57;;;;;;;1.00;1.00;;;;;;;35.76;47.18;99590.03;5049851;27;20205;-65
2023/07/16 10:22:36;;;;;;;1.75;1.08;;;;;;;35.59;48.15;99586.09;5049909;27;20303;-65
2023/07/16 10:25:04;;;;;;;1.05;0.80;;;;;;;35.61;47.80;99578.72;5119879;27;20248;-66
2023/07/16 10:27:32;;;;;;;1.23;1.13;;;;;;;35.80;48.91;99577.94;5154524;27;20197;-65
2023/07/16 10:30:01;;;;;;;0.90;0.90;;;;;;;35.91;47.61;99571.97;5154695;27;20201;-63
2023/07/16 10:32:29;;;;;;;1.67;1.38;;;;;;;36.06;46.90;99567.28;5154661;27;20238;-63
2023/07/16 10:34:58;;;;;;;1.30;1.23;;;;;;;36.04;45.64;99569.31;5154748;27;20743;-63
2023/07/16 10:37:26;;;;;;;1.00;1.00;;;;;;;35.95;47.22;99565.22;5154544;27;20676;-63
2023/07/16 10:39:55;;;;;;;1.00;1.00;;;;;;;36.03;47.67;99556.19;5154386;27;20201;-63
2023/07/16 10:42:23;;;;;;;1.30;1.20;;;;;;;35.97;47.62;99557.81;5154309;27;20213;-64
2023/07/16 10:44:52;;;;;;;1.10;1.10;;;;;;;36.03;47.16;99545.50;5154227;27;20209;-63
2023/07/16 10:47:24;;;;;;;2.03;0.90;;;;;;;36.28;46.18;99555.38;5154306;27;20245;-63
2023/07/16 10:49:53;;;;;;;1.50;1.10;;;;;;;36.14;46.58;99548.38;5154344;27;20593;-62
2023/07/16 10:52:23;;;;;;;1.38;1.30;;;;;;;36.11;45.70;99554.16;5154398;27;20189;-62
2023/07/16 10:54:51;;;;;;;1.30;1.20;;;;;;;36.15;46.02;99549.22;5154037;27;20212;-62
2023/07/16 10:57:19;;;;;;;1.30;1.20;;;;;;;36.22;46.94;99545.50;5154232;27;20197;-63
2023/07/16 10:59:46;;;;;;;1.20;1.15;;;;;;;36.39;46.91;99545.88;5154006;27;20193;-62
2023/07/16 11:02:14;;;;;;;1.17;1.08;;;;;;;36.23;46.83;99541.81;5154021;27;20209;-63
2023/07/16 11:04:41;;;;;;;1.45;1.23;;;;;;;36.31;46.96;99538.94;5154240;27;20197;-63
2023/07/16 11:07:09;;;;;;;0.77;0.77;;;;;;;36.32;46.73;99529.88;5154247;27;20193;-63
2023/07/16 11:09:43;;;;;;;1.20;1.20;;;;;;;36.33;46.78;99507.47;5154026;27;20195;-64
2023/07/16 11:12:10;;;;;;;0.82;0.82;;;;;;;36.45;47.76;99533.56;5154041;27;20220;-63
2023/07/16 11:14:37;;;;;;;1.48;1.38;;;;;;;36.20;47.82;99507.50;5153919;27;20204;-63
2023/07/16 11:17:08;;;;;;;4.15;1.40;;;;;;;36.20;45.99;99526.19;5153433;27;20225;-63
2023/07/16 11:19:36;;;;;;;1.80;1.40;;;;;;;36.17;47.46;99526.63;5153904;27;20217;-62
2023/07/16 11:22:04;;;;;;;1.15;1.00;;;;;;;36.29;48.36;99527.63;5153454;27;20249;-63
2023/07/16 11:24:39;;;;;;;1.40;1.30;;;;;;;36.22;47.79;99510.78;5152453;27;20198;-63
2023/07/16 11:27:13;;;;;;;0.95;0.95;;;;;;;36.23;47.12;99520.44;5153649;27;20188;-63
2023/07/16 11:29:41;;;;;;;0.80;0.80;;;;;;;36.33;48.50;99514.66;5153907;27;20618;-64
2023/07/16 11:32:09;;;;;;;1.27;1.23;;;;;;;36.37;47.80;99515.91;5153612;27;20197;-63
2023/07/16 11:34:36;;;;;;;2.67;1.05;;;;;;;36.31;48.38;99512.22;5153269;27;20224;-62
2023/07/16 11:37:10;;;;;;;1.42;1.33;;;;;;;36.34;48.51;99513.66;5153461;27;20690;-63